createdAt,value
2018-05-17T00:00:57.069Z,12.90
2018-05-17T00:01:57.062Z,13.60
2018-05-17T00:02:57.055Z,12.10
2018-05-17T00:03:57.053Z,16.80
2018-05-17T00:04:57.050Z,15.90
2018-05-17T00:05:57.049Z,14.30
2018-05-17T00:06:57.050Z,15.80
2018-05-17T00:07:57.041Z,14.90
2018-05-17T00:08:57.038Z,17.50
2018-05-17T00:09:57.030Z,15.70
2018-05-17T00:10:57.025Z,13.20
2018-05-17T00:11:57.021Z,14.60
2018-05-17T00:12:57.018Z,12.30
2018-05-17T00:13:57.019Z,15.10
2018-05-17T00:14:57.015Z,13.50
2018-05-17T00:15:57.007Z,15.20
2018-05-17T00:16:57.005Z,12.70
2018-05-17T00:17:57.003Z,12.30
2018-05-17T00:18:57.005Z,10.70
2018-05-17T00:19:56.995Z,12.10
2018-05-17T00:20:57.064Z,12.10
2018-05-17T00:21:56.982Z,11.70
2018-05-17T00:22:56.978Z,12.10
2018-05-17T00:23:56.974Z,12.50
2018-05-17T00:24:56.969Z,12.60
2018-05-17T00:25:56.971Z,12.50
2018-05-17T00:26:56.966Z,12.40
2018-05-17T00:27:56.964Z,12.80
2018-05-17T00:28:56.961Z,11.40
2018-05-17T00:29:56.952Z,12.20
2018-05-17T00:30:56.946Z,10.60
2018-05-17T00:31:56.948Z,12.40
2018-05-17T00:32:56.946Z,11.60
2018-05-17T00:33:56.934Z,12.20
2018-05-17T00:34:56.932Z,12.00
2018-05-17T00:35:56.924Z,11.80
2018-05-17T00:36:56.921Z,11.60
2018-05-17T00:37:56.921Z,11.40
2018-05-17T00:38:56.917Z,10.20
2018-05-17T00:39:56.913Z,11.40
2018-05-17T00:40:56.909Z,11.50
2018-05-17T00:41:56.969Z,11.40
2018-05-17T00:42:56.899Z,11.10
2018-05-17T00:43:56.893Z,12.10
2018-05-17T00:44:56.890Z,11.60
2018-05-17T00:45:56.895Z,12.60
2018-05-17T00:46:56.885Z,11.60
2018-05-17T00:47:56.876Z,11.10
2018-05-17T00:48:56.872Z,11.10
2018-05-17T00:49:56.873Z,10.20
2018-05-17T00:50:56.868Z,11.70
2018-05-17T00:51:56.862Z,12.10
2018-05-17T00:52:56.859Z,12.30
2018-05-17T00:53:56.866Z,13.20
2018-05-17T00:54:56.848Z,13.10
2018-05-17T00:55:56.850Z,13.40
2018-05-17T00:56:56.842Z,14.00
2018-05-17T00:57:56.833Z,12.50
2018-05-17T00:58:56.828Z,14.00
2018-05-17T00:59:56.832Z,14.90
2018-05-17T01:00:56.820Z,14.80
2018-05-17T01:01:56.820Z,16.20
2018-05-17T01:02:56.815Z,17.90
2018-05-17T01:03:56.806Z,20.80
2018-05-17T01:04:56.802Z,25.30
2018-05-17T01:05:56.802Z,19.90
2018-05-17T01:06:56.797Z,24.40
2018-05-17T01:07:56.794Z,27.90
2018-05-17T01:08:56.790Z,22.60
2018-05-17T01:09:56.780Z,29.50
2018-05-17T01:10:56.775Z,32.20
2018-05-17T01:11:56.771Z,42.10
2018-05-17T01:12:56.766Z,41.20
2018-05-17T01:13:56.767Z,47.50
2018-05-17T01:14:56.761Z,50.40
2018-05-17T01:15:56.756Z,51.00
2018-05-17T01:16:56.751Z,42.90
2018-05-17T01:17:56.743Z,50.40
2018-05-17T01:18:56.738Z,60.40
2018-05-17T01:19:56.738Z,59.10
2018-05-17T01:20:56.734Z,75.50
2018-05-17T01:21:56.725Z,64.70
2018-05-17T01:22:56.720Z,85.50
2018-05-17T01:23:56.715Z,83.90
2018-05-17T01:24:56.711Z,68.80
2018-05-17T01:25:56.710Z,86.30
2018-05-17T01:26:56.706Z,102.50
2018-05-17T01:27:56.702Z,90.90
2018-05-17T01:28:56.697Z,93.00
2018-05-17T01:29:56.687Z,95.00
2018-05-17T01:30:56.682Z,128.40
2018-05-17T01:31:56.678Z,131.20
2018-05-17T01:32:56.673Z,148.30
2018-05-17T01:33:56.674Z,159.80
2018-05-17T01:34:56.764Z,149.40
2018-05-17T01:35:56.658Z,164.00
2018-05-17T01:36:56.654Z,193.10
2018-05-17T01:37:56.654Z,144.40
2018-05-17T01:38:56.651Z,123.30
2018-05-17T01:39:56.644Z,99.40
2018-05-17T01:40:56.640Z,127.60
2018-05-17T01:41:56.632Z,133.10
2018-05-17T01:42:56.722Z,14.90
2018-05-17T01:43:56.621Z,10.70
2018-05-17T01:44:56.617Z,10.70
2018-05-17T01:45:56.616Z,12.10
2018-05-17T01:46:56.615Z,11.10
2018-05-17T01:47:56.610Z,11.90
2018-05-17T01:48:56.601Z,10.60
2018-05-17T01:49:56.592Z,10.20
2018-05-17T01:50:56.587Z,11.30
2018-05-17T01:51:56.590Z,12.20
2018-05-17T01:52:56.588Z,11.70
2018-05-17T01:53:56.574Z,11.30
2018-05-17T01:54:56.567Z,11.50
2018-05-17T01:55:56.566Z,9.90
2018-05-17T01:56:56.558Z,11.00
2018-05-17T01:57:56.560Z,10.60
2018-05-17T01:58:56.552Z,10.50
2018-05-17T01:59:56.547Z,11.30
2018-05-17T02:00:56.543Z,11.40
2018-05-17T02:01:56.534Z,9.80
2018-05-17T02:02:56.529Z,10.30
2018-05-17T02:03:56.525Z,10.50
2018-05-17T02:04:56.520Z,10.80
2018-05-17T02:05:56.520Z,10.80
2018-05-17T02:06:56.515Z,9.70
2018-05-17T02:07:56.506Z,10.50
2018-05-17T02:08:56.500Z,10.10
2018-05-17T02:09:56.501Z,11.30
2018-05-17T02:10:56.494Z,11.30
2018-05-17T02:11:56.491Z,11.70
2018-05-17T02:12:56.485Z,11.50
2018-05-17T02:13:56.476Z,10.60
2018-05-17T02:14:56.470Z,9.40
2018-05-17T02:15:56.466Z,10.40
2018-05-17T02:16:56.461Z,11.00
2018-05-17T02:17:56.460Z,10.50
2018-05-17T02:18:56.457Z,10.10
2018-05-17T02:19:56.487Z,9.50
2018-05-17T02:20:56.451Z,9.80
2018-05-17T02:21:56.437Z,10.20
2018-05-17T02:22:56.439Z,10.40
2018-05-17T02:23:56.432Z,10.00
2018-05-17T02:24:56.428Z,10.10
2018-05-17T02:25:56.418Z,10.60
2018-05-17T02:26:56.413Z,9.70
2018-05-17T02:27:56.408Z,9.30
2018-05-17T02:28:56.404Z,10.20
2018-05-17T02:29:56.403Z,10.30
2018-05-17T02:30:56.401Z,10.00
2018-05-17T02:31:56.393Z,9.80
2018-05-17T02:32:56.390Z,10.50
2018-05-17T02:33:56.380Z,10.60
2018-05-17T02:34:56.378Z,9.80
2018-05-17T02:35:56.373Z,10.80
2018-05-17T02:36:56.365Z,10.40
2018-05-17T02:37:56.366Z,9.80
2018-05-17T02:38:56.360Z,9.80
2018-05-17T02:39:56.353Z,9.60
2018-05-17T02:40:56.349Z,9.60
2018-05-17T02:41:56.348Z,11.30
2018-05-17T02:42:56.358Z,9.60
2018-05-17T02:43:56.342Z,10.20
2018-05-17T02:44:56.331Z,11.50
2018-05-17T02:45:56.322Z,10.50
2018-05-17T02:46:56.319Z,10.20
2018-05-17T02:47:56.313Z,10.20
2018-05-17T02:48:56.307Z,8.80
2018-05-17T02:49:56.307Z,9.10
2018-05-17T02:50:56.302Z,9.20
2018-05-17T02:51:56.299Z,10.80
2018-05-17T02:52:56.296Z,11.00
2018-05-17T02:53:56.287Z,11.00
2018-05-17T02:54:56.278Z,11.30
2018-05-17T02:55:56.279Z,11.30
2018-05-17T02:56:56.273Z,10.80
2018-05-17T02:57:56.265Z,10.60
2018-05-17T02:58:56.260Z,10.90
2018-05-17T02:59:56.255Z,11.50
2018-05-17T03:00:56.251Z,10.20
2018-05-17T03:01:56.258Z,11.00
2018-05-17T03:02:56.246Z,10.90
2018-05-17T03:03:56.239Z,10.20
2018-05-17T03:04:56.239Z,9.50
2018-05-17T03:05:56.230Z,9.80
2018-05-17T03:06:56.226Z,9.80
2018-05-17T03:07:56.216Z,9.20
2018-05-17T03:08:56.216Z,10.90
2018-05-17T03:09:56.212Z,9.70
2018-05-17T03:10:56.204Z,9.90
2018-05-17T03:11:56.196Z,10.10
2018-05-17T03:12:56.198Z,9.90
2018-05-17T03:13:56.191Z,10.80
2018-05-17T03:14:56.185Z,9.80
2018-05-17T03:15:56.182Z,9.60
2018-05-17T03:16:56.178Z,10.60
2018-05-17T03:17:56.168Z,10.40
2018-05-17T03:18:56.163Z,11.10
2018-05-17T03:19:56.157Z,10.50
2018-05-17T03:20:56.153Z,10.60
2018-05-17T03:21:56.152Z,11.30
2018-05-17T03:22:56.148Z,11.70
2018-05-17T03:23:56.141Z,10.20
2018-05-17T03:24:56.137Z,11.30
2018-05-17T03:25:56.129Z,12.00
2018-05-17T03:26:56.122Z,10.50
2018-05-17T03:27:56.122Z,10.10
2018-05-17T03:28:56.121Z,11.40
2018-05-17T03:29:56.107Z,11.70
2018-05-17T03:30:56.105Z,11.10
2018-05-17T03:31:56.103Z,10.60
2018-05-17T03:32:56.093Z,10.60
2018-05-17T03:33:56.092Z,10.80
2018-05-17T03:34:56.093Z,11.50
2018-05-17T03:35:56.082Z,11.10
2018-05-17T03:36:56.078Z,11.00
2018-05-17T03:37:56.068Z,11.50
2018-05-17T03:38:56.065Z,12.50
2018-05-17T03:39:56.057Z,11.50
2018-05-17T03:40:56.051Z,11.90
2018-05-17T03:41:56.052Z,11.10
2018-05-17T03:42:56.046Z,10.80
2018-05-17T03:43:56.037Z,11.20
2018-05-17T03:44:56.034Z,10.90
2018-05-17T03:45:56.031Z,10.30
2018-05-17T03:46:56.026Z,10.80
2018-05-17T03:47:56.022Z,10.80
2018-05-17T03:48:56.019Z,10.30
2018-05-17T03:49:56.011Z,10.80
2018-05-17T03:50:56.001Z,10.00
2018-05-17T03:51:55.996Z,10.80
2018-05-17T03:52:55.991Z,11.60
2018-05-17T03:53:55.992Z,10.20
2018-05-17T03:54:55.985Z,10.50
2018-05-17T03:55:55.980Z,10.70
2018-05-17T03:56:55.976Z,9.90
2018-05-17T03:57:55.966Z,10.40
2018-05-17T03:58:55.960Z,10.20
2018-05-17T03:59:55.959Z,10.30
2018-05-17T04:00:55.954Z,10.40
2018-05-17T04:01:55.945Z,10.30
2018-05-17T04:02:55.940Z,11.10
2018-05-17T04:03:55.936Z,11.30
2018-05-17T04:04:55.930Z,10.30
2018-05-17T04:05:55.930Z,10.90
2018-05-17T04:06:55.924Z,10.40
2018-05-17T04:07:55.919Z,10.60
2018-05-17T04:08:55.913Z,10.20
2018-05-17T04:09:55.904Z,10.40
2018-05-17T04:10:55.899Z,10.50
2018-05-17T04:11:55.893Z,9.70
2018-05-17T04:12:55.889Z,11.50
2018-05-17T04:13:55.940Z,11.00
2018-05-17T04:14:55.883Z,10.20
2018-05-17T04:15:55.876Z,12.20
2018-05-17T04:16:55.869Z,10.40
2018-05-17T04:17:55.930Z,10.40
2018-05-17T04:18:55.863Z,11.60
2018-05-17T04:19:55.857Z,10.60
2018-05-17T04:20:55.854Z,11.40
2018-05-17T04:21:55.844Z,10.10
2018-05-17T04:22:55.838Z,9.50
2018-05-17T04:23:55.833Z,11.00
2018-05-17T04:24:55.828Z,10.30
2018-05-17T04:25:55.832Z,10.60
2018-05-17T04:26:55.824Z,10.70
2018-05-17T04:27:55.821Z,10.90
2018-05-17T04:28:55.815Z,10.60
2018-05-17T04:29:55.806Z,11.20
2018-05-17T04:30:55.799Z,11.40
2018-05-17T04:31:55.800Z,10.20
2018-05-17T04:32:55.795Z,10.30
2018-05-17T04:33:55.786Z,10.50
2018-05-17T04:34:55.779Z,10.10
2018-05-17T04:35:55.775Z,10.70
2018-05-17T04:36:55.770Z,10.90
2018-05-17T04:37:55.770Z,10.10
2018-05-17T04:38:55.765Z,11.20
2018-05-17T04:39:55.760Z,12.00
2018-05-17T04:40:55.756Z,13.10
2018-05-17T04:41:55.747Z,13.10
2018-05-17T04:42:55.742Z,12.90
2018-05-17T04:43:55.738Z,12.20
2018-05-17T04:44:55.732Z,11.70
2018-05-17T04:45:55.734Z,12.10
2018-05-17T04:46:55.735Z,13.00
2018-05-17T04:47:55.720Z,12.10
2018-05-17T04:48:55.714Z,13.90
2018-05-17T04:49:55.715Z,13.10
2018-05-17T04:50:55.710Z,13.30
2018-05-17T04:51:55.704Z,12.10
2018-05-17T04:52:55.699Z,13.70
2018-05-17T04:53:55.691Z,14.80
2018-05-17T04:54:55.684Z,14.40
2018-05-17T04:55:55.682Z,14.10
2018-05-17T04:56:55.677Z,14.50
2018-05-17T04:57:55.677Z,12.60
2018-05-17T04:58:55.672Z,12.90
2018-05-17T04:59:55.668Z,14.40
2018-05-17T05:00:55.665Z,12.80
2018-05-17T05:01:55.656Z,13.10
2018-05-17T05:02:55.688Z,12.10
2018-05-17T05:03:55.651Z,12.00
2018-05-17T05:04:55.651Z,14.00
2018-05-17T05:05:55.638Z,14.30
2018-05-17T05:06:55.632Z,12.90
2018-05-17T05:07:55.628Z,12.50
2018-05-17T05:08:55.624Z,13.60
2018-05-17T05:09:55.624Z,13.30
2018-05-17T05:10:55.619Z,13.70
2018-05-17T05:11:55.615Z,13.30
2018-05-17T05:12:55.611Z,13.50
2018-05-17T05:13:55.603Z,13.20
2018-05-17T05:14:55.598Z,12.90
2018-05-17T05:15:55.594Z,12.50
2018-05-17T05:16:55.590Z,12.30
2018-05-17T05:17:55.591Z,12.80
2018-05-17T05:18:55.586Z,14.70
2018-05-17T05:19:55.578Z,12.10
2018-05-17T05:20:55.574Z,12.30
2018-05-17T05:21:55.576Z,11.70
2018-05-17T05:22:55.571Z,13.70
2018-05-17T05:23:55.566Z,12.10
2018-05-17T05:24:55.562Z,11.70
2018-05-17T05:25:55.554Z,11.00
2018-05-17T05:26:55.550Z,11.70
2018-05-17T05:27:55.546Z,11.10
2018-05-17T05:28:55.543Z,12.70
2018-05-17T05:29:55.545Z,15.00
2018-05-17T05:30:55.539Z,15.50
2018-05-17T05:31:55.537Z,14.70
2018-05-17T05:32:55.532Z,14.30
2018-05-17T05:33:55.602Z,14.00
2018-05-17T05:34:55.520Z,14.30
2018-05-17T05:35:55.522Z,14.60
2018-05-17T05:36:55.517Z,14.90
2018-05-17T05:37:55.510Z,14.70
2018-05-17T05:38:55.507Z,13.60
2018-05-17T05:39:55.506Z,13.80
2018-05-17T05:40:55.498Z,15.20
2018-05-17T05:41:55.500Z,13.90
2018-05-17T05:42:55.495Z,15.20
2018-05-17T05:43:55.493Z,14.10
2018-05-17T05:44:55.490Z,15.20
2018-05-17T05:45:55.481Z,15.10
2018-05-17T05:46:55.478Z,14.50
2018-05-17T05:47:55.475Z,15.80
2018-05-17T05:48:55.471Z,14.80
2018-05-17T05:49:55.473Z,15.80
2018-05-17T05:50:55.468Z,16.10
2018-05-17T05:51:55.460Z,15.80
2018-05-17T05:52:55.456Z,15.00
2018-05-17T05:53:55.496Z,14.60
2018-05-17T05:54:55.453Z,16.20
2018-05-17T05:55:55.450Z,16.10
2018-05-17T05:56:55.447Z,16.60
2018-05-17T05:57:55.440Z,16.80
2018-05-17T05:58:55.478Z,16.20
2018-05-17T05:59:55.433Z,17.00
2018-05-17T06:00:55.430Z,15.10
2018-05-17T06:01:55.431Z,15.00
2018-05-17T06:02:55.428Z,16.20
2018-05-17T06:03:55.424Z,15.70
2018-05-17T06:04:55.422Z,15.50
2018-05-17T06:05:55.419Z,14.60
2018-05-17T06:06:55.410Z,14.50
2018-05-17T06:07:55.412Z,16.10
2018-05-17T06:08:55.409Z,14.50
2018-05-17T06:09:55.402Z,14.20
2018-05-17T06:10:55.398Z,14.20
2018-05-17T06:11:55.395Z,15.20
2018-05-17T06:12:55.393Z,14.70
2018-05-17T06:13:55.395Z,14.20
2018-05-17T06:14:55.390Z,14.40
2018-05-17T06:15:55.389Z,15.60
2018-05-17T06:16:55.387Z,15.60
2018-05-17T06:17:55.380Z,15.00
2018-05-17T06:18:55.376Z,14.10
2018-05-17T06:19:55.374Z,16.30
2018-05-17T06:20:55.372Z,16.10
2018-05-17T06:21:55.375Z,16.60
2018-05-17T06:22:55.372Z,15.60
2018-05-17T06:23:55.364Z,16.90
2018-05-17T06:24:55.362Z,16.30
2018-05-17T06:25:55.365Z,17.60
2018-05-17T06:26:55.363Z,16.00
2018-05-17T06:27:55.360Z,16.60
2018-05-17T06:28:55.359Z,16.50
2018-05-17T06:29:55.352Z,15.70
2018-05-17T06:30:55.349Z,16.10
2018-05-17T06:31:55.357Z,16.40
2018-05-17T06:32:55.344Z,17.10
2018-05-17T06:33:55.349Z,17.40
2018-05-17T06:34:55.345Z,17.40
2018-05-17T06:35:55.341Z,17.40
2018-05-17T06:36:55.340Z,18.20
2018-05-17T06:37:55.333Z,18.30
2018-05-17T06:38:55.331Z,19.20
2018-05-17T06:39:55.333Z,17.80
2018-05-17T06:40:55.332Z,18.70
2018-05-17T06:41:55.326Z,19.10
2018-05-17T06:42:55.322Z,19.30
2018-05-17T06:43:55.378Z,20.20
2018-05-17T06:44:55.318Z,19.30
2018-05-17T06:45:55.320Z,18.20
2018-05-17T06:46:55.317Z,19.00
2018-05-17T06:47:55.321Z,18.60
2018-05-17T06:48:55.315Z,18.90
2018-05-17T06:49:55.313Z,18.20
2018-05-17T06:50:55.304Z,18.40
2018-05-17T06:51:55.396Z,17.40
2018-05-17T06:52:55.304Z,17.30
2018-05-17T06:53:55.303Z,16.80
2018-05-17T06:54:55.300Z,16.10
2018-05-17T06:55:55.298Z,17.70
2018-05-17T06:56:55.293Z,15.30
2018-05-17T06:57:55.295Z,17.10
2018-05-17T06:58:55.294Z,14.90
2018-05-17T06:59:55.291Z,15.00
2018-05-17T07:00:55.309Z,16.00
2018-05-17T07:01:55.284Z,14.80
2018-05-17T07:02:55.282Z,15.40
2018-05-17T07:03:55.280Z,15.20
2018-05-17T07:04:55.279Z,14.40
2018-05-17T07:05:55.283Z,14.50
2018-05-17T07:06:55.280Z,14.80
2018-05-17T07:07:55.278Z,15.60
2018-05-17T07:08:55.278Z,15.90
2018-05-17T07:09:55.273Z,16.40
2018-05-17T07:10:55.271Z,15.60
2018-05-17T07:11:55.274Z,15.90
2018-05-17T07:12:55.274Z,15.50
2018-05-17T07:13:55.270Z,15.90
2018-05-17T07:14:55.268Z,15.10
2018-05-17T07:15:55.268Z,14.40
2018-05-17T07:16:55.271Z,14.40
2018-05-17T07:17:55.332Z,15.60
2018-05-17T07:18:55.272Z,15.10
2018-05-17T07:19:55.271Z,14.90
2018-05-17T07:20:55.272Z,14.70
2018-05-17T07:21:55.269Z,15.60
2018-05-17T07:22:55.269Z,15.60
2018-05-17T07:23:55.273Z,13.80
2018-05-17T07:24:55.273Z,12.80
2018-05-17T07:25:55.282Z,11.80
2018-05-17T07:26:55.283Z,13.00
2018-05-17T07:27:55.282Z,13.20
2018-05-17T07:28:55.285Z,14.80
2018-05-17T07:29:55.358Z,14.10
2018-05-17T07:30:55.297Z,15.40
2018-05-17T07:31:55.302Z,15.10
2018-05-17T07:32:55.305Z,15.20
2018-05-17T07:33:55.305Z,15.20
2018-05-17T07:34:55.308Z,16.40
2018-05-17T07:35:55.313Z,17.10
2018-05-17T07:36:55.315Z,17.70
2018-05-17T07:37:55.327Z,17.30
2018-05-17T07:38:55.328Z,18.30
2018-05-17T07:39:55.332Z,18.00
2018-05-17T07:40:55.336Z,19.10
2018-05-17T07:41:55.340Z,19.50
2018-05-17T07:42:55.338Z,19.90
2018-05-17T07:43:55.347Z,19.40
2018-05-17T07:44:55.352Z,18.60
2018-05-17T07:45:55.351Z,18.20
2018-05-17T07:46:55.357Z,17.50
2018-05-17T07:47:55.355Z,16.50
2018-05-17T07:48:55.359Z,16.50
2018-05-17T07:49:55.369Z,16.00
2018-05-17T07:50:55.370Z,15.50
2018-05-17T07:51:55.375Z,15.60
2018-05-17T07:52:55.379Z,16.30
2018-05-17T07:53:55.382Z,15.30
2018-05-17T07:54:55.385Z,15.30
2018-05-17T07:55:55.390Z,14.30
2018-05-17T07:56:55.396Z,13.10
2018-05-17T07:57:55.405Z,15.00
2018-05-17T07:58:55.412Z,13.50
2018-05-17T07:59:55.411Z,12.00
2018-05-17T08:00:55.418Z,11.40
2018-05-17T08:01:55.430Z,13.00
2018-05-17T08:02:55.435Z,12.10
2018-05-17T08:03:55.443Z,12.00
2018-05-17T08:04:55.448Z,12.00
2018-05-17T08:05:55.453Z,9.80
2018-05-17T08:06:55.464Z,8.40
2018-05-17T08:07:55.467Z,8.40
2018-05-17T08:08:55.484Z,8.70
2018-05-17T08:09:55.488Z,8.40
2018-05-17T08:10:55.496Z,8.00
2018-05-17T08:11:55.506Z,6.80
2018-05-17T08:12:55.517Z,8.10
2018-05-17T08:13:55.524Z,7.10
2018-05-17T08:14:55.530Z,7.70
2018-05-17T08:15:55.552Z,7.80
2018-05-17T08:16:55.561Z,6.60
2018-05-17T08:17:55.580Z,6.00
2018-05-17T08:18:55.575Z,6.70
2018-05-17T08:19:55.585Z,7.10
2018-05-17T08:20:55.597Z,7.20
2018-05-17T08:21:55.614Z,7.40
2018-05-17T08:22:55.623Z,6.80
2018-05-17T08:23:55.637Z,6.80
2018-05-17T08:25:04.110Z,6.90
2018-05-17T08:26:55.668Z,6.10
2018-05-17T08:27:55.681Z,6.70
2018-05-17T08:28:55.696Z,7.10
2018-05-17T08:29:55.705Z,7.90
2018-05-17T08:30:55.721Z,8.60
2018-05-17T08:31:55.734Z,9.70
2018-05-17T08:32:55.742Z,10.00
2018-05-17T08:33:55.753Z,9.50
2018-05-17T08:34:55.769Z,10.60
2018-05-17T08:35:55.780Z,11.00
2018-05-17T08:36:55.793Z,11.50
2018-05-17T08:37:55.806Z,10.70
2018-05-17T08:38:55.809Z,10.60
2018-05-17T08:39:55.818Z,10.90
2018-05-17T08:40:55.833Z,11.20
2018-05-17T08:41:55.840Z,10.40
2018-05-17T08:42:55.854Z,10.50
2018-05-17T08:43:55.865Z,10.70
2018-05-17T08:44:55.874Z,10.30
2018-05-17T08:45:55.885Z,9.20
2018-05-17T08:46:55.890Z,8.40
2018-05-17T08:47:55.903Z,8.00
2018-05-17T08:48:55.920Z,8.20
2018-05-17T08:49:55.932Z,9.60
2018-05-17T08:50:55.939Z,10.10
2018-05-17T08:51:55.952Z,9.80
2018-05-17T08:52:55.965Z,9.00
2018-05-17T08:53:55.978Z,10.20
2018-05-17T08:54:55.995Z,8.80
2018-05-17T08:55:56.010Z,7.80
2018-05-17T08:56:56.024Z,7.50
2018-05-17T08:57:56.038Z,7.30
2018-05-17T08:58:56.047Z,6.70
2018-05-17T08:59:56.061Z,6.10
2018-05-17T09:00:56.075Z,6.10
2018-05-17T09:01:56.089Z,5.90
2018-05-17T09:02:56.109Z,5.60
2018-05-17T09:03:56.122Z,5.20
2018-05-17T09:04:56.133Z,5.40
2018-05-17T09:05:56.149Z,4.80
2018-05-17T09:06:56.168Z,5.20
2018-05-17T09:07:56.183Z,4.80
2018-05-17T09:08:56.199Z,5.20
2018-05-17T09:09:56.216Z,6.20
2018-05-17T09:10:56.226Z,5.50
2018-05-17T09:11:56.267Z,5.50
2018-05-17T09:12:56.256Z,6.30
2018-05-17T09:13:56.363Z,5.60
2018-05-17T09:14:56.291Z,5.50
2018-05-17T09:15:56.307Z,5.50
2018-05-17T09:16:56.323Z,5.70
2018-05-17T09:17:56.339Z,5.80
2018-05-17T09:18:56.351Z,6.00
2018-05-17T09:19:56.366Z,5.60
2018-05-17T09:20:56.385Z,5.60
2018-05-17T09:21:56.402Z,5.50
2018-05-17T09:22:56.413Z,5.80
2018-05-17T09:23:56.429Z,5.70
2018-05-17T09:24:56.445Z,5.30
2018-05-17T09:25:56.464Z,5.50
2018-05-17T09:26:56.481Z,4.90
2018-05-17T09:27:56.496Z,5.40
2018-05-17T09:28:56.507Z,5.20
2018-05-17T09:29:56.523Z,5.40
2018-05-17T09:30:56.544Z,5.50
2018-05-17T09:31:56.560Z,5.70
2018-05-17T09:32:56.574Z,5.80
2018-05-17T09:33:56.591Z,5.80
2018-05-17T09:34:56.601Z,5.90
2018-05-17T09:35:56.617Z,6.20
2018-05-17T09:36:56.639Z,5.50
2018-05-17T09:37:56.653Z,5.90
2018-05-17T09:38:56.664Z,5.30
2018-05-17T09:39:56.681Z,5.20
2018-05-17T09:40:56.697Z,5.20
2018-05-17T09:41:56.720Z,5.40
2018-05-17T09:42:56.734Z,5.50
2018-05-17T09:43:56.750Z,5.40
2018-05-17T09:44:56.766Z,5.50
2018-05-17T09:45:56.781Z,5.70
2018-05-17T09:46:56.792Z,6.00
2018-05-17T09:47:56.809Z,5.80
2018-05-17T09:48:56.825Z,6.00
2018-05-17T09:49:56.842Z,6.10
2018-05-17T09:50:56.861Z,5.50
2018-05-17T09:51:56.888Z,5.90
2018-05-17T09:52:56.891Z,5.90
2018-05-17T09:53:56.907Z,5.50
2018-05-17T09:54:56.993Z,6.00
2018-05-17T09:55:56.948Z,6.00
2018-05-17T09:56:56.962Z,5.80
2018-05-17T09:57:56.979Z,5.60
2018-05-17T09:58:56.991Z,6.30
2018-05-17T09:59:57.008Z,6.60
2018-05-17T10:00:57.027Z,6.20
2018-05-17T10:01:57.043Z,5.80
2018-05-17T10:02:57.076Z,6.20
2018-05-17T10:03:57.081Z,6.50
2018-05-17T10:04:57.098Z,6.30
2018-05-17T10:05:57.115Z,6.50
2018-05-17T10:06:57.127Z,6.00
2018-05-17T10:07:57.144Z,7.00
2018-05-17T10:08:57.172Z,5.90
2018-05-17T10:09:57.182Z,6.00
2018-05-17T10:10:57.196Z,6.10
2018-05-17T10:11:57.217Z,5.80
2018-05-17T10:12:57.228Z,6.00
2018-05-17T10:13:57.246Z,6.00
2018-05-17T10:14:57.266Z,6.10
2018-05-17T10:15:57.284Z,6.00
2018-05-17T10:16:57.301Z,6.80
2018-05-17T10:17:57.318Z,6.00
2018-05-17T10:18:57.329Z,6.20
2018-05-17T10:19:57.346Z,6.00
2018-05-17T10:20:57.363Z,6.10
2018-05-17T10:21:57.379Z,7.00
2018-05-17T10:22:57.484Z,6.60
2018-05-17T10:23:57.417Z,6.30
2018-05-17T10:24:57.431Z,6.80
2018-05-17T10:25:57.446Z,7.00
2018-05-17T10:26:57.466Z,7.00
2018-05-17T10:27:57.483Z,6.70
2018-05-17T10:28:57.503Z,6.90
2018-05-17T10:29:57.518Z,6.80
2018-05-17T10:30:57.529Z,6.30
2018-05-17T10:31:57.545Z,6.90
2018-05-17T10:32:57.561Z,6.60
2018-05-17T10:33:57.580Z,7.10
2018-05-17T10:34:57.598Z,6.90
2018-05-17T10:35:57.616Z,6.90
2018-05-17T10:36:57.637Z,7.60
2018-05-17T10:37:57.649Z,6.50
2018-05-17T10:38:57.660Z,7.60
2018-05-17T10:39:57.677Z,6.90
2018-05-17T10:40:57.699Z,7.20
2018-05-17T10:41:57.716Z,8.10
2018-05-17T10:42:57.727Z,6.90
2018-05-17T10:43:57.744Z,7.70
2018-05-17T10:44:57.761Z,7.90
2018-05-17T10:45:57.779Z,6.80
2018-05-17T10:46:57.802Z,8.40
2018-05-17T10:47:57.815Z,7.30
2018-05-17T10:48:57.920Z,7.40
2018-05-17T10:49:57.848Z,6.80
2018-05-17T10:50:57.861Z,7.90
2018-05-17T10:51:57.876Z,7.90
2018-05-17T10:52:57.892Z,7.80
2018-05-17T10:53:57.909Z,7.50
2018-05-17T10:54:57.930Z,7.50
2018-05-17T10:55:57.947Z,7.50
2018-05-17T10:56:57.958Z,7.90
2018-05-17T10:57:57.974Z,8.60
2018-05-17T10:58:57.993Z,9.20
2018-05-17T10:59:58.011Z,7.60
2018-05-17T11:00:58.030Z,7.80
2018-05-17T11:01:58.041Z,8.10
2018-05-17T11:02:58.060Z,8.30
2018-05-17T11:03:58.071Z,9.20
2018-05-17T11:04:58.087Z,8.50
2018-05-17T11:05:58.103Z,7.60
2018-05-17T11:06:58.121Z,7.90
2018-05-17T11:07:58.138Z,8.10
2018-05-17T11:08:58.155Z,7.40
2018-05-17T11:09:58.171Z,9.30
2018-05-17T11:10:58.181Z,8.30
2018-05-17T11:11:58.201Z,9.10
2018-05-17T11:12:58.218Z,8.00
2018-05-17T11:13:58.234Z,9.00
2018-05-17T11:14:58.243Z,9.70
2018-05-17T11:15:58.259Z,8.80
2018-05-17T11:16:58.274Z,9.40
2018-05-17T11:17:58.288Z,8.70
2018-05-17T11:18:58.307Z,9.30
2018-05-17T11:19:58.322Z,9.70
2018-05-17T11:20:58.339Z,10.50
2018-05-17T11:21:58.350Z,10.50
2018-05-17T11:22:58.359Z,11.00
2018-05-17T11:23:58.371Z,10.40
2018-05-17T11:24:58.388Z,12.00
2018-05-17T11:25:58.483Z,11.60
2018-05-17T11:26:58.412Z,11.90
2018-05-17T11:27:58.423Z,11.80
2018-05-17T11:28:58.429Z,13.10
2018-05-17T11:29:58.440Z,14.00
2018-05-17T11:30:58.454Z,13.90
2018-05-17T11:31:58.464Z,13.80
2018-05-17T11:32:58.540Z,12.60
2018-05-17T11:33:58.481Z,12.20
2018-05-17T11:34:58.484Z,13.30
2018-05-17T11:35:58.494Z,13.90
2018-05-17T11:36:58.503Z,13.80
2018-05-17T11:37:58.509Z,13.50
2018-05-17T11:38:58.520Z,13.60
2018-05-17T11:39:58.528Z,13.00
2018-05-17T11:40:58.534Z,13.30
2018-05-17T11:41:58.542Z,14.80
2018-05-17T11:42:58.543Z,14.10
2018-05-17T11:43:58.549Z,13.70
2018-05-17T11:44:58.560Z,14.30
2018-05-17T11:45:58.566Z,13.00
2018-05-17T11:46:58.567Z,14.00
2018-05-17T11:47:58.573Z,13.10
2018-05-17T11:48:58.578Z,13.60
2018-05-17T11:49:58.583Z,13.70
2018-05-17T11:50:58.592Z,13.30
2018-05-17T11:51:58.597Z,13.10
2018-05-17T11:52:58.603Z,13.50
2018-05-17T11:53:58.607Z,13.80
2018-05-17T11:54:58.606Z,13.20
2018-05-17T11:55:58.609Z,12.80
2018-05-17T11:56:58.614Z,13.30
2018-05-17T11:57:58.622Z,12.40
2018-05-17T11:58:58.626Z,12.60
2018-05-17T11:59:58.630Z,13.10
2018-05-17T12:00:58.631Z,12.70
2018-05-17T12:01:58.633Z,12.60
2018-05-17T12:02:58.640Z,12.50
2018-05-17T12:03:58.646Z,12.10
2018-05-17T12:04:58.648Z,12.90
2018-05-17T12:05:58.652Z,12.40
2018-05-17T12:06:58.650Z,12.80
2018-05-17T12:07:58.653Z,13.00
2018-05-17T12:08:58.656Z,13.00
2018-05-17T12:09:58.660Z,12.90
2018-05-17T12:10:58.667Z,12.80
2018-05-17T12:11:58.671Z,13.40
2018-05-17T12:12:58.676Z,13.60
2018-05-17T12:13:58.676Z,14.00
2018-05-17T12:14:58.674Z,13.60
2018-05-17T12:15:58.677Z,13.20
2018-05-17T12:16:58.684Z,13.50
2018-05-17T12:17:58.687Z,13.00
2018-05-17T12:18:58.685Z,12.70
2018-05-17T12:19:58.687Z,14.20
2018-05-17T12:20:58.694Z,12.90
2018-05-17T12:21:58.699Z,13.50
2018-05-17T12:22:58.716Z,13.60
2018-05-17T12:23:58.708Z,13.40
2018-05-17T12:24:58.708Z,12.80
2018-05-17T12:25:58.709Z,12.70
2018-05-17T12:26:58.705Z,12.80
2018-05-17T12:27:58.708Z,12.30
2018-05-17T12:28:58.710Z,12.40
2018-05-17T12:29:58.816Z,12.10
2018-05-17T12:30:58.718Z,12.50
2018-05-17T12:31:58.782Z,12.10
2018-05-17T12:32:58.722Z,12.20
2018-05-17T12:33:58.721Z,12.60
2018-05-17T12:34:58.727Z,12.80
2018-05-17T12:35:58.728Z,13.00
2018-05-17T12:36:58.733Z,12.50
2018-05-17T12:37:58.733Z,12.80
2018-05-17T12:38:58.734Z,12.50
2018-05-17T12:39:58.732Z,11.70
2018-05-17T12:40:58.734Z,12.70
2018-05-17T12:41:58.737Z,13.10
2018-05-17T12:42:58.742Z,13.10
2018-05-17T12:43:58.745Z,12.50
2018-05-17T12:44:58.747Z,13.00
2018-05-17T12:45:58.750Z,13.30
2018-05-17T12:46:58.747Z,13.20
2018-05-17T12:47:58.751Z,13.30
2018-05-17T12:48:58.756Z,12.00
2018-05-17T12:49:58.758Z,12.70
2018-05-17T12:50:58.847Z,13.60
2018-05-17T12:51:58.755Z,12.90
2018-05-17T12:52:58.759Z,13.70
2018-05-17T12:53:58.760Z,13.40
2018-05-17T12:54:58.765Z,13.30
2018-05-17T12:55:58.767Z,13.20
2018-05-17T12:56:58.772Z,12.90
2018-05-17T12:57:58.771Z,13.00
2018-05-17T12:58:58.768Z,12.90
2018-05-17T12:59:58.770Z,13.40
2018-05-17T13:00:58.774Z,12.50